Time;durP1;ratioP1;P1;durP2;ratioP2;P2;SDS_P1;SDS_P2;PMS_P1;PMS_P2;Temp;Humidity;BMP_temperature;BMP_pressure;BME280_temperature;BME280_humidity;BME280_pressure;Samples;Min_cycle;Max_cycle;Signal;HPM_P1;HPM_P2
2022/06/18 00:05:08;;;;;;;2.35;1.65;;;28.90;62.30;;;;;;10942376;32;20031;-67
2022/06/18 00:17:31;;;;;;;3.17;1.42;;;28.80;62.20;;;;;;10941548;32;20047;-67
2022/06/18 00:23:55;;;;;;;1.90;1.30;;;28.70;62.80;;;;;;10941924;32;20391;-67
2022/06/18 00:29:57;;;;;;;8.48;2.28;;;28.80;63.00;;;;;;10941747;32;20019;-67
2022/06/18 00:36:02;;;;;;;1.87;1.67;;;28.70;63.20;;;;;;10941589;32;20326;-67
2022/06/18 00:42:08;;;;;;;1.85;1.40;;;28.60;63.20;;;;;;10941588;32;20081;-67
2022/06/18 00:48:34;;;;;;;2.87;1.85;;;28.50;63.30;;;;;;10941450;32;20046;-67
2022/06/18 00:55:00;;;;;;;2.75;1.73;;;28.40;62.90;;;;;;10941319;32;20026;-67
2022/06/18 01:01:12;;;;;;;3.60;1.67;;;28.50;63.00;;;;;;10941110;32;20031;-67
2022/06/18 01:07:36;;;;;;;2.25;1.90;;;28.40;63.00;;;;;;10946777;32;20023;-67
2022/06/18 01:14:09;;;;;;;2.95;2.08;;;28.30;63.50;;;;;;10943937;32;20031;-67
2022/06/18 01:20:12;;;;;;;3.25;2.25;;;28.30;63.80;;;;;;10947729;32;20050;-67
2022/06/18 01:26:15;;;;;;;2.58;2.05;;;28.30;63.60;;;;;;10943313;32;20030;-67
2022/06/18 01:32:18;;;;;;;3.53;2.62;;;28.20;63.70;;;;;;10947453;32;20042;-67
2022/06/18 01:38:26;;;;;;;5.10;2.97;;;28.10;63.40;;;;;;10946349;32;20395;-67
2022/06/18 01:44:31;;;;;;;3.37;2.05;;;28.20;63.40;;;;;;10947094;32;20046;-67
2022/06/18 01:50:37;;;;;;;3.60;2.17;;;28.00;63.60;;;;;;10942626;32;20062;-67
2022/06/18 01:56:44;;;;;;;3.35;2.15;;;28.00;63.80;;;;;;10945757;32;20027;-67
2022/06/18 02:02:47;;;;;;;3.85;2.20;;;28.00;63.90;;;;;;10946562;32;20350;-67
2022/06/18 02:08:51;;;;;;;2.72;2.20;;;27.90;64.00;;;;;;10946350;32;20350;-67
2022/06/18 02:14:59;;;;;;;3.65;2.62;;;27.90;64.10;;;;;;10941718;32;20347;-67
2022/06/18 02:21:05;;;;;;;5.93;2.67;;;27.80;64.20;;;;;;10945800;32;20023;-67
2022/06/18 02:27:11;;;;;;;4.55;2.45;;;27.90;64.00;;;;;;10982947;32;20034;-67
2022/06/18 02:33:41;;;;;;;7.70;2.70;;;27.70;64.30;;;;;;10982946;32;20027;-67
2022/06/18 02:40:19;;;;;;;3.70;2.47;;;27.70;64.40;;;;;;10982527;32;20064;-67
2022/06/18 02:46:22;;;;;;;3.97;2.80;;;27.80;64.40;;;;;;10829530;32;20035;-68
2022/06/18 02:52:30;;;;;;;3.92;2.45;;;27.70;65.00;;;;;;10828345;32;20035;-67
2022/06/18 02:58:38;;;;;;;5.05;2.90;;;27.60;65.10;;;;;;10827919;32;20051;-67
2022/06/18 03:04:40;;;;;;;3.60;2.37;;;27.60;65.30;;;;;;10827934;32;20070;-75
2022/06/18 03:17:03;;;;;;;4.22;2.75;;;27.50;65.50;;;;;;10828592;32;20043;-75
2022/06/18 03:23:15;;;;;;;4.68;3.08;;;27.40;65.70;;;;;;10963820;32;20420;-75
2022/06/18 03:29:28;;;;;;;7.37;3.42;;;27.40;66.10;;;;;;10980490;32;20041;-75
2022/06/18 03:35:30;;;;;;;4.62;2.20;;;27.40;65.80;;;;;;11012677;32;20412;-74
2022/06/18 03:41:33;;;;;;;4.32;2.50;;;27.30;65.90;;;;;;11005065;32;20030;-75
2022/06/18 03:47:36;;;;;;;4.50;3.15;;;27.30;65.90;;;;;;11018543;32;20026;-75
2022/06/18 03:53:38;;;;;;;6.65;2.97;;;27.30;65.90;;;;;;11018295;32;20034;-75
2022/06/18 03:59:40;;;;;;;6.30;2.80;;;27.30;65.80;;;;;;11018171;32;20023;-74
2022/06/18 04:05:43;;;;;;;4.82;2.70;;;27.30;65.70;;;;;;11017990;32;20037;-75
2022/06/18 04:11:45;;;;;;;4.00;2.95;;;27.30;65.50;;;;;;11017938;32;20302;-74
2022/06/18 04:17:47;;;;;;;4.18;3.05;;;27.30;65.40;;;;;;11017697;32;20038;-74
2022/06/18 04:23:50;;;;;;;6.93;2.35;;;27.30;65.50;;;;;;11017595;32;20027;-74
2022/06/18 04:29:52;;;;;;;3.55;2.67;;;27.30;65.50;;;;;;10970112;27;20046;-74
2022/06/18 04:35:57;;;;;;;4.03;2.67;;;27.30;65.50;;;;;;10941537;32;20084;-74
2022/06/18 04:42:01;;;;;;;6.25;2.60;;;27.30;65.60;;;;;;10947215;32;20027;-75
2022/06/18 04:48:05;;;;;;;7.07;3.12;;;27.30;66.00;;;;;;10949008;32;20042;-74
2022/06/18 04:54:08;;;;;;;11.85;3.20;;;27.30;65.90;;;;;;10948789;32;20023;-75
2022/06/18 05:00:12;;;;;;;4.50;2.70;;;27.30;66.40;;;;;;10950403;32;20389;-75
2022/06/18 05:06:54;;;;;;;5.22;3.12;;;27.30;66.90;;;;;;10948321;32;20027;-75
2022/06/18 05:12:57;;;;;;;6.35;2.78;;;27.30;66.90;;;;;;10948315;32;20049;-75
2022/06/18 05:19:00;;;;;;;3.45;2.17;;;27.30;67.40;;;;;;10947864;32;20015;-74
2022/06/18 05:25:03;;;;;;;10.70;3.85;;;27.30;67.40;;;;;;10947671;32;20045;-75
2022/06/18 05:31:05;;;;;;;5.22;4.03;;;27.30;67.40;;;;;;10943263;32;20073;-74
2022/06/18 05:37:13;;;;;;;7.07;3.40;;;27.40;67.50;;;;;;10947361;32;20335;-74
2022/06/18 05:43:15;;;;;;;6.72;3.25;;;27.30;67.40;;;;;;10933670;32;20023;-75
2022/06/18 05:49:17;;;;;;;7.62;3.67;;;27.40;67.50;;;;;;10946615;32;20045;-75
2022/06/18 05:55:21;;;;;;;7.93;3.62;;;27.60;67.00;;;;;;10946485;32;20049;-72
2022/06/18 06:01:24;;;;;;;5.32;3.50;;;27.80;66.70;;;;;;10946078;32;20027;-73
2022/06/18 06:07:26;;;;;;;3.35;2.30;;;27.80;66.10;;;;;;10946391;32;20050;-73
2022/06/18 06:13:29;;;;;;;4.53;3.47;;;27.90;66.00;;;;;;10946002;32;20023;-75
2022/06/18 06:19:31;;;;;;;5.87;3.40;;;28.10;66.30;;;;;;10945458;32;20338;-74
2022/06/18 06:25:34;;;;;;;4.47;3.15;;;28.10;66.10;;;;;;10931944;32;20027;-74
2022/06/18 06:31:36;;;;;;;7.03;3.42;;;28.20;65.70;;;;;;10944990;32;20015;-74
2022/06/18 06:37:39;;;;;;;6.00;3.62;;;28.30;65.20;;;;;;10945187;32;20031;-73
2022/06/18 06:43:41;;;;;;;5.05;3.33;;;28.30;65.00;;;;;;10944980;32;20307;-74
2022/06/18 06:49:42;;;;;;;3.53;2.60;;;28.60;64.50;;;;;;10944640;32;20019;-75
2022/06/18 07:02:31;;;;;;;3.90;2.40;;;28.90;63.70;;;;;;10943091;32;20211;-74
2022/06/18 07:08:33;;;;;;;4.40;2.62;;;29.00;63.70;;;;;;10943244;32;20018;-74
2022/06/18 07:14:36;;;;;;;4.03;2.70;;;29.10;63.20;;;;;;10943087;32;20417;-75
2022/06/18 07:20:38;;;;;;;3.67;2.67;;;29.20;62.70;;;;;;10930157;32;20019;-75
2022/06/18 07:26:40;;;;;;;6.20;3.85;;;29.30;62.40;;;;;;10943106;32;20069;-74
2022/06/18 07:32:48;;;;;;;5.12;3.05;;;29.30;62.40;;;;;;10943203;32;20053;-75
2022/06/18 07:38:50;;;;;;;7.32;4.07;;;29.30;62.00;;;;;;10942966;32;20116;-74
2022/06/18 07:44:52;;;;;;;6.82;3.70;;;29.40;61.80;;;;;;10942925;32;20053;-74
2022/06/18 07:50:54;;;;;;;6.22;3.92;;;29.40;61.70;;;;;;10942733;32;20019;-75
2022/06/18 07:56:57;;;;;;;5.15;3.45;;;29.50;62.40;;;;;;10928890;32;20027;-74
2022/06/18 08:02:59;;;;;;;3.30;2.45;;;29.40;62.10;;;;;;10942302;32;20018;-75
2022/06/18 08:09:02;;;;;;;4.85;3.28;;;29.40;62.10;;;;;;10928569;32;20023;-74
2022/06/18 08:15:14;;;;;;;5.18;3.75;;;29.80;61.50;;;;;;10928438;32;20011;-74
2022/06/18 08:21:29;;;;;;;5.22;3.72;;;29.90;60.40;;;;;;10941807;32;20023;-75
2022/06/18 08:27:41;;;;;;;7.10;3.92;;;30.10;59.50;;;;;;10941246;32;20053;-75
2022/06/18 08:33:43;;;;;;;5.07;3.42;;;30.10;59.10;;;;;;10941482;32;20007;-74
2022/06/18 08:39:46;;;;;;;4.72;3.05;;;30.20;58.50;;;;;;10941543;32;20422;-75
2022/06/18 08:45:58;;;;;;;8.07;3.97;;;30.40;57.60;;;;;;10941395;32;20413;-76
2022/06/18 08:52:06;;;;;;;6.20;4.47;;;30.40;56.60;;;;;;10927981;32;20023;-76
2022/06/18 08:58:33;;;;;;;6.28;3.78;;;30.50;56.10;;;;;;10941058;32;20019;-75
2022/06/18 09:04:54;;;;;;;3.05;2.53;;;30.60;55.40;;;;;;10940998;32;20035;-75
2022/06/18 09:11:29;;;;;;;3.87;3.03;;;30.80;55.30;;;;;;10925749;32;20037;-73
2022/06/18 09:18:08;;;;;;;3.03;2.53;;;30.90;54.50;;;;;;10936597;32;20049;-76
2022/06/18 09:24:18;;;;;;;6.03;3.50;;;31.10;53.80;;;;;;10937503;32;20014;-76
2022/06/18 09:30:55;;;;;;;6.87;3.00;;;31.10;52.60;;;;;;10947587;32;20027;-74
2022/06/18 09:37:03;;;;;;;2.40;2.00;;;31.20;52.00;;;;;;10933927;32;20311;-74
2022/06/18 09:43:12;;;;;;;2.50;1.90;;;31.40;51.00;;;;;;10945844;32;20515;-68
2022/06/18 09:49:15;;;;;;;14.60;2.87;;;31.40;50.50;;;;;;10946998;32;20015;-69
2022/06/18 09:55:22;;;;;;;3.97;2.40;;;31.50;50.70;;;;;;10946804;32;20425;-67
2022/06/18 10:01:52;;;;;;;3.00;2.00;;;31.50;49.90;;;;;;10932826;32;20379;-68
2022/06/18 10:07:55;;;;;;;3.87;2.42;;;31.70;49.30;;;;;;10925916;32;20027;-76
2022/06/18 10:14:15;;;;;;;3.58;2.33;;;31.80;47.80;;;;;;10931731;32;20379;-75
2022/06/18 10:20:29;;;;;;;7.60;2.10;;;31.90;47.60;;;;;;10944808;32;20031;-74
2022/06/18 10:27:11;;;;;;;2.92;2.20;;;32.10;47.20;;;;;;10941970;32;20049;-75
2022/06/18 10:33:25;;;;;;;2.42;1.90;;;32.20;46.70;;;;;;10945458;32;20019;-75
2022/06/18 10:39:33;;;;;;;4.20;2.35;;;32.30;46.60;;;;;;10945212;32;20053;-77
2022/06/18 10:53:02;;;;;;;2.60;2.28;;;32.40;47.10;;;;;;10944908;32;20046;-69
2022/06/18 10:59:04;;;;;;;3.62;2.15;;;32.60;47.10;;;;;;10942417;32;20027;-67
2022/06/18 11:05:38;;;;;;;2.35;2.05;;;32.80;47.00;;;;;;10930947;32;20070;-67
2022/06/18 11:11:51;;;;;;;4.80;2.17;;;33.00;46.00;;;;;;10939929;32;20035;-67
2022/06/18 11:17:55;;;;;;;2.12;1.75;;;33.30;45.90;;;;;;10942850;32;20052;-66
2022/06/18 11:24:13;;;;;;;2.67;2.10;;;33.40;45.70;;;;;;10943753;32;20023;-67
2022/06/18 11:30:34;;;;;;;2.67;1.98;;;33.40;44.30;;;;;;10938761;32;20077;-69
2022/06/18 11:36:57;;;;;;;2.83;2.05;;;33.40;44.90;;;;;;10929505;32;20022;-68
2022/06/18 11:43:27;;;;;;;4.10;2.15;;;33.70;43.90;;;;;;10929787;32;20027;-73
2022/06/18 11:49:33;;;;;;;2.20;1.73;;;33.90;45.10;;;;;;10942592;32;20045;-75
2022/06/18 11:55:48;;;;;;;3.83;2.20;;;33.90;44.70;;;;;;10929215;32;20058;-74
2022/06/18 12:01:59;;;;;;;6.70;3.78;;;34.00;43.80;;;;;;10942367;32;20031;-73
2022/06/18 12:08:04;;;;;;;3.83;2.20;;;34.10;42.70;;;;;;10942770;32;20430;-73
2022/06/18 12:14:23;;;;;;;4.50;2.35;;;34.10;42.80;;;;;;10942235;32;20049;-71
2022/06/18 12:20:34;;;;;;;2.42;2.10;;;34.20;43.60;;;;;;10938262;32;20057;-68
2022/06/18 12:26:39;;;;;;;3.42;1.90;;;34.30;42.90;;;;;;10946745;27;20052;-68
2022/06/18 12:33:12;;;;;;;3.37;2.42;;;34.40;42.80;;;;;;10941947;32;20100;-67
2022/06/18 12:39:52;;;;;;;2.28;2.08;;;34.50;42.80;;;;;;10941439;32;20049;-67
2022/06/18 12:46:07;;;;;;;3.15;2.33;;;34.50;42.80;;;;;;10789926;32;20055;-68
2022/06/18 12:52:18;;;;;;;4.72;2.60;;;34.70;42.10;;;;;;10785359;32;20032;-67
2022/06/18 12:58:57;;;;;;;3.93;2.80;;;34.60;41.50;;;;;;10788776;33;20040;-67
2022/06/18 13:05:21;;;;;;;2.20;1.85;;;34.60;41.30;;;;;;10795811;33;20021;-68
2022/06/18 13:11:45;;;;;;;3.90;1.90;;;34.60;41.20;;;;;;10795715;33;20032;-69
2022/06/18 13:17:52;;;;;;;4.18;1.83;;;34.50;42.30;;;;;;10791171;33;20047;-68
2022/06/18 13:30:51;;;;;;;2.97;2.22;;;34.70;40.80;;;;;;10944884;32;20343;-68
2022/06/18 13:37:21;;;;;;;5.55;2.70;;;34.70;40.30;;;;;;10795433;32;20416;-68
2022/06/18 13:43:31;;;;;;;4.12;2.75;;;34.70;40.10;;;;;;10791686;32;20051;-68
2022/06/18 13:49:43;;;;;;;2.55;1.90;;;34.40;41.40;;;;;;10792336;33;20032;-75
2022/06/18 13:55:47;;;;;;;5.40;2.22;;;34.40;41.10;;;;;;10794017;33;20054;-75
2022/06/18 14:01:55;;;;;;;4.30;2.65;;;34.40;41.40;;;;;;10790691;33;20044;-75
2022/06/18 14:07:58;;;;;;;3.72;2.70;;;34.40;40.70;;;;;;10794753;33;20020;-73
2022/06/18 14:14:01;;;;;;;3.47;2.45;;;34.60;41.10;;;;;;10917566;32;20045;-73
2022/06/18 14:20:05;;;;;;;3.45;2.25;;;34.30;41.50;;;;;;10945545;32;20043;-74
2022/06/18 14:26:10;;;;;;;4.60;2.70;;;34.30;41.40;;;;;;10945899;32;20354;-75
2022/06/18 14:32:31;;;;;;;2.92;2.15;;;34.30;41.20;;;;;;10945650;32;20015;-73
2022/06/18 14:38:35;;;;;;;4.18;2.30;;;34.30;42.40;;;;;;10945430;32;20426;-75
2022/06/18 14:45:05;;;;;;;2.40;2.15;;;34.20;42.50;;;;;;10945087;32;20060;-74
2022/06/18 14:51:26;;;;;;;2.72;2.20;;;34.20;42.50;;;;;;10945072;32;20093;-74
2022/06/18 14:58:06;;;;;;;4.40;1.92;;;34.10;42.50;;;;;;10944977;32;20026;-75
2022/06/18 15:04:31;;;;;;;2.37;1.77;;;34.20;41.90;;;;;;10944024;32;20402;-74
2022/06/18 15:10:43;;;;;;;4.68;2.22;;;34.30;41.20;;;;;;10943886;32;20046;-68
2022/06/18 15:23:07;;;;;;;3.47;2.33;;;34.10;41.70;;;;;;10939093;32;20019;-67
2022/06/18 15:29:17;;;;;;;8.18;2.90;;;34.00;43.00;;;;;;10939430;32;20019;-69
2022/06/18 15:35:23;;;;;;;2.55;1.80;;;33.90;43.70;;;;;;10943329;32;20022;-75
2022/06/18 15:41:37;;;;;;;3.17;1.70;;;34.00;43.10;;;;;;10943095;32;20019;-75
2022/06/18 15:47:39;;;;;;;3.33;1.95;;;34.10;42.50;;;;;;10943011;32;20023;-74
2022/06/18 15:53:51;;;;;;;4.62;2.72;;;34.20;42.40;;;;;;10942912;32;20027;-74
2022/06/18 15:59:55;;;;;;;5.50;1.98;;;34.10;42.90;;;;;;10939095;32;20035;-76
2022/06/18 16:06:02;;;;;;;3.20;1.80;;;34.00;43.90;;;;;;10938930;32;20019;-70
2022/06/18 16:12:20;;;;;;;3.28;1.90;;;34.00;43.20;;;;;;10942312;32;20045;-75
2022/06/18 16:18:31;;;;;;;5.12;1.83;;;34.00;43.40;;;;;;10941934;32;20031;-75
2022/06/18 16:24:38;;;;;;;3.12;2.42;;;34.10;43.60;;;;;;10928569;32;20045;-74
2022/06/18 16:30:41;;;;;;;3.85;1.60;;;34.10;43.30;;;;;;10928407;32;20046;-75
2022/06/18 16:37:20;;;;;;;2.92;1.92;;;34.30;42.80;;;;;;10944836;32;20027;-74
2022/06/18 16:43:22;;;;;;;4.30;2.50;;;34.30;42.30;;;;;;10949080;32;20375;-74
2022/06/18 16:49:26;;;;;;;3.83;2.10;;;34.40;42.30;;;;;;10944960;32;20053;-67
2022/06/18 16:55:37;;;;;;;3.15;2.35;;;34.30;42.60;;;;;;10948783;32;20027;-68
2022/06/18 17:01:39;;;;;;;1.42;1.30;;;34.20;42.70;;;;;;10948805;32;20402;-67
2022/06/18 17:07:42;;;;;;;4.35;2.50;;;34.20;42.60;;;;;;10948422;32;20023;-68
2022/06/18 17:13:44;;;;;;;2.12;1.50;;;34.30;42.50;;;;;;10948200;32;20031;-67
2022/06/18 17:19:46;;;;;;;2.58;1.35;;;34.20;42.50;;;;;;10948154;32;20077;-67
2022/06/18 17:32:09;;;;;;;2.58;1.58;;;34.20;42.60;;;;;;10947529;32;20031;-67
2022/06/18 17:38:13;;;;;;;2.33;1.67;;;34.20;42.70;;;;;;10947411;32;20027;-68
2022/06/18 17:44:15;;;;;;;6.72;1.60;;;34.20;42.70;;;;;;10942756;32;20327;-67
2022/06/18 17:50:17;;;;;;;2.50;1.48;;;34.30;42.70;;;;;;10946754;32;20034;-67
2022/06/18 17:56:28;;;;;;;3.00;1.55;;;34.80;42.30;;;;;;10946742;32;20432;-67
2022/06/18 18:02:32;;;;;;;5.87;1.50;;;35.40;41.30;;;;;;10946489;32;20053;-68
2022/06/18 18:08:34;;;;;;;5.12;1.90;;;35.10;41.70;;;;;;10946312;32;20018;-67
2022/06/18 18:14:40;;;;;;;4.47;2.22;;;34.60;42.60;;;;;;10946134;32;20097;-67
2022/06/18 18:20:42;;;;;;;1.97;1.50;;;34.10;43.30;;;;;;10946053;32;20018;-68
2022/06/18 18:26:46;;;;;;;1.48;1.33;;;33.80;44.00;;;;;;10945798;32;20045;-67
2022/06/18 18:32:48;;;;;;;7.82;1.58;;;33.50;44.80;;;;;;10943790;32;20383;-67
2022/06/18 18:38:51;;;;;;;1.70;1.42;;;33.30;45.60;;;;;;10945396;32;20027;-67
2022/06/18 18:44:53;;;;;;;3.22;1.80;;;33.00;45.90;;;;;;10945310;32;20038;-67
2022/06/18 18:50:55;;;;;;;4.00;1.73;;;32.90;46.40;;;;;;10944150;32;20031;-67
2022/06/18 18:56:57;;;;;;;2.12;1.55;;;32.70;46.80;;;;;;10943871;32;20049;-67
2022/06/18 19:02:59;;;;;;;1.87;1.58;;;32.50;47.40;;;;;;10942131;32;20027;-67
2022/06/18 19:09:01;;;;;;;3.60;1.80;;;32.40;47.90;;;;;;10936759;32;20024;-67
2022/06/18 19:15:04;;;;;;;5.18;1.23;;;32.30;48.30;;;;;;10909677;32;20023;-67
2022/06/18 19:21:09;;;;;;;2.35;1.80;;;32.10;48.60;;;;;;10906104;32;20026;-67
2022/06/18 19:27:12;;;;;;;3.72;1.85;;;32.00;48.80;;;;;;10905804;32;20343;-67
2022/06/18 19:33:14;;;;;;;1.98;1.40;;;31.90;49.00;;;;;;10905734;32;20015;-67
2022/06/18 19:39:23;;;;;;;3.08;1.52;;;31.80;49.20;;;;;;10905342;32;20063;-67
2022/06/18 19:45:27;;;;;;;2.72;1.50;;;31.70;49.60;;;;;;10902666;32;20015;-67
2022/06/18 19:51:31;;;;;;;2.37;1.65;;;31.60;50.00;;;;;;10905365;32;20007;-67
2022/06/18 19:57:33;;;;;;;5.35;1.62;;;31.40;50.30;;;;;;10904957;32;20019;-67
2022/06/18 20:03:36;;;;;;;2.05;1.20;;;31.40;50.60;;;;;;10891592;32;20430;-67
2022/06/18 20:09:38;;;;;;;2.05;1.25;;;31.30;50.90;;;;;;10904225;32;20019;-67
2022/06/18 20:15:40;;;;;;;5.25;2.00;;;31.20;51.20;;;;;;10903739;32;20036;-67
2022/06/18 20:21:42;;;;;;;5.22;1.50;;;31.00;51.60;;;;;;10900146;32;20031;-67
2022/06/18 20:27:45;;;;;;;3.28;1.92;;;31.00;51.90;;;;;;10536071;27;12099058;-67
2022/06/18 20:33:47;;;;;;;3.10;2.00;;;31.00;52.20;;;;;;10862268;32;20024;-67
2022/06/18 20:39:49;;;;;;;1.75;1.27;;;30.80;52.50;;;;;;10862860;32;20067;-67
2022/06/18 20:45:52;;;;;;;2.30;1.75;;;30.80;52.90;;;;;;10858152;32;20058;-67
2022/06/18 20:51:54;;;;;;;2.47;1.83;;;30.70;53.40;;;;;;10859534;32;20051;-67
2022/06/18 20:57:57;;;;;;;5.97;1.80;;;30.60;53.60;;;;;;10863597;32;20027;-67
2022/06/18 21:03:59;;;;;;;13.52;1.77;;;30.50;53.80;;;;;;10932569;32;20027;-67
2022/06/18 21:10:04;;;;;;;2.12;1.50;;;30.50;54.10;;;;;;10927887;32;20049;-67
2022/06/18 21:16:06;;;;;;;1.90;1.55;;;30.40;54.50;;;;;;10941033;32;20054;-67
2022/06/18 21:22:12;;;;;;;2.28;1.55;;;30.40;54.90;;;;;;10944045;32;20026;-67
2022/06/18 21:28:15;;;;;;;3.00;1.87;;;30.30;55.30;;;;;;10946155;32;20046;-67
2022/06/18 21:40:45;;;;;;;2.17;1.52;;;30.20;55.70;;;;;;10910993;32;20101;-67
2022/06/18 21:46:48;;;;;;;2.28;1.52;;;30.20;56.00;;;;;;10896238;32;20050;-67
2022/06/18 21:52:50;;;;;;;2.83;1.25;;;30.10;56.30;;;;;;10908643;32;20023;-67
2022/06/18 21:58:53;;;;;;;3.50;1.50;;;30.00;56.40;;;;;;10895590;32;20027;-67
2022/06/18 22:04:55;;;;;;;3.53;1.77;;;29.90;56.70;;;;;;10908035;32;20081;-67
2022/06/18 22:10:58;;;;;;;1.70;1.33;;;29.80;56.80;;;;;;10908609;32;20312;-67
2022/06/18 22:17:12;;;;;;;5.03;1.50;;;29.80;57.00;;;;;;10908525;32;20054;-67
2022/06/18 22:23:14;;;;;;;2.70;1.33;;;29.80;57.30;;;;;;10903377;32;20057;-67
2022/06/18 22:29:17;;;;;;;1.80;1.10;;;29.70;57.90;;;;;;10941528;32;20061;-67
2022/06/18 22:35:20;;;;;;;2.30;1.48;;;29.60;58.10;;;;;;10930196;32;20060;-67
2022/06/18 22:41:43;;;;;;;2.00;1.50;;;29.50;58.30;;;;;;10932045;32;20372;-67
2022/06/18 22:47:46;;;;;;;2.92;1.80;;;29.40;58.50;;;;;;10942494;32;20319;-67
2022/06/18 22:53:50;;;;;;;2.65;1.90;;;29.30;58.70;;;;;;10944898;32;20089;-67
2022/06/18 22:59:52;;;;;;;1.95;1.42;;;29.10;59.10;;;;;;10944743;32;20027;-67
2022/06/18 23:05:59;;;;;;;1.83;1.55;;;29.00;59.50;;;;;;10931230;32;20028;-67
2022/06/18 23:12:03;;;;;;;2.55;1.65;;;28.90;59.50;;;;;;10943762;32;20050;-67
2022/06/18 23:18:08;;;;;;;6.65;2.35;;;28.80;59.80;;;;;;10944204;32;20343;-67
2022/06/18 23:24:10;;;;;;;3.08;2.10;;;28.70;60.20;;;;;;10939458;32;20027;-67
2022/06/18 23:30:14;;;;;;;4.55;1.55;;;28.60;60.40;;;;;;10942305;32;20031;-67
2022/06/18 23:36:37;;;;;;;5.55;2.15;;;28.50;60.60;;;;;;10943457;32;20335;-67
2022/06/18 23:42:39;;;;;;;3.53;2.10;;;28.40;60.90;;;;;;10942353;32;20350;-67
2022/06/18 23:48:43;;;;;;;2.55;1.75;;;28.30;61.00;;;;;;10943063;32;20054;-67
2022/06/18 23:54:45;;;;;;;5.15;1.75;;;28.30;61.20;;;;;;10938441;32;20049;-67
